METAR AND TAF INFORMATION
METAR FOR MTPP
ADDS - METARS form results

(0644 UTC 15 June 2021)
Data provider http://aviationweather.gov/metar/data/
 
METAR text: MTPP 150559Z AUTO 12010KT 9000 ////// 26/23 Q1016 A3002 NOSIG
Conditions at: MTPP (PORT-AU-PRINCE , HT) observed 0559 UTC 15 June 2021
Temperature: 26.0°C (79°F)
Dewpoint: 23.0°C (73°F) [RH = 84%]
Pressure (altimeter): 30.00 inches Hg (1016.0 mb)
Winds: from the ESE (120 degrees) at 12 MPH (10 knots; 5.1 m/s)
Visibility: 6 miles ( 9 km)
Ceiling: unknown
Clouds: missing
Weather: no significant weather observed at this time

 AIRPORT MAP

 RUNWAY INFORMATION
Runway 10 Runway length 9974 ft Runway width 141 ft
Runway elevation 79 ft Runway displaced threshold 0 ft Runway heading 87
Runway 28 Runway length 9974 ft Runway width 141 ft
Runway elevation 122 ft Runway displaced threshold 0 ft Runway heading 267

 AIRPORT FREQUENCIES
Type APP Name APP Frequency 119.8 MHZ
Type TWR Name TWR Frequency 118.3 MHZ

 AIRPORT NEAR NAVIGATION AIDS
Type NDB Name Port Au Prince Frequency 270 KHZ
Type VOR-DME Name Port Au Prince Frequency 115300 KHZ

-